WetterOnline ( http://www.wetteronline.de )

Wetter aktuell Kassel

Aktuelles Wetter: Schauenburg-Elgershausen (317m)

6-stündlich | Neueste Meldungen
Ortszeit Temperatur Wetter
Fr, 20.04. 2:00 11.8° C wolkig
Do, 19.04. 20:00 21.9° C leicht bewölkt
Do, 19.04. 14:00 23.1° C wolkenlos
Do, 19.04. 8:00 14.5° C wolkenlos
Do, 19.04. 2:00 14.3° C wolkenlos
Mi, 18.04. 20:00 20.3° C leicht bewölkt
Mi, 18.04. 14:00 21.5° C leicht bewölkt
Mi, 18.04. 8:00 10.8° C fast wolkenlos
Ortszeit Temperatur Wetter
Fr, 20.04. 5:00 11.8° C wolkig
Fr, 20.04. 4:40 10.7° C wolkig
Fr, 20.04. 4:30 11.7° C wolkig
Fr, 20.04. 4:20 11.7° C wolkig
Fr, 20.04. 4:10 10.9° C wolkig
Fr, 20.04. 4:00 10.7° C wolkig
Fr, 20.04. 3:50 10.7° C wolkig
Fr, 20.04. 3:30 10.7° C wolkig
Fr, 20.04. 3:00 11.4° C wolkig
Fr, 20.04. 2:30 11.5° C wolkig
Fr, 20.04. 2:00 11.8° C wolkig
Ortszeit Relative Feuchte Sichtweite
Fr, 20.04. 2:00 84% 18 km
Do, 19.04. 20:00 29% 70 km
Do, 19.04. 14:00 37% 30 km
Do, 19.04. 8:00 72% 40 km
Do, 19.04. 2:00 58% 40 km
Mi, 18.04. 20:00 49% 60 km
Mi, 18.04. 14:00 37% 28 km
Mi, 18.04. 8:00 77% 24 km
Ortszeit Relative Feuchte Sichtweite
Fr, 20.04. 5:00 82% 16 km
Fr, 20.04. 4:40 88% -
Fr, 20.04. 4:30 84% 18 km
Fr, 20.04. 4:20 84% -
Fr, 20.04. 4:10 86% -
Fr, 20.04. 4:00 88% 15 km
Fr, 20.04. 3:50 88% -
Fr, 20.04. 3:30 87% 13 km
Fr, 20.04. 3:00 85% 16 km
Fr, 20.04. 2:30 84% 18 km
Fr, 20.04. 2:00 84% 18 km
Ortszeit Niederschlagsmenge Niederschlagsart
Fr, 20.04. 2:00 0.0 l/m2 in 6 Std. -
Do, 19.04. 20:00 0.0 l/m2 in 12 Std. -
Do, 19.04. 14:00 0.1 l/m2 in 6 Std. Regen
Do, 19.04. 8:00 0.0 l/m2 in 12 Std. -
Do, 19.04. 2:00 0.1 l/m2 in 6 Std. -
Mi, 18.04. 20:00 0.1 l/m2 in 12 Std. Niederschlag
Mi, 18.04. 14:00 0.1 l/m2 in 6 Std. Niederschlag
Mi, 18.04. 8:00 0.1 l/m2 in 12 Std. -
Ortszeit Niederschlagsmenge Niederschlagsart
Fr, 20.04. 5:00 0.0 l/m2 in 1 Std. -
Fr, 20.04. 4:40 keine Meldung -
Fr, 20.04. 4:30 0.0 l/m2 in 1 Std. -
Fr, 20.04. 4:20 keine Meldung -
Fr, 20.04. 4:10 keine Meldung -
Fr, 20.04. 4:00 0.0 l/m2 in 1 Std. -
Fr, 20.04. 3:50 keine Meldung -
Fr, 20.04. 3:30 0.0 l/m2 in 1 Std. -
Fr, 20.04. 3:00 0.0 l/m2 in 1 Std. -
Fr, 20.04. 2:30 0.0 l/m2 in 1 Std. -
Fr, 20.04. 2:00 0.0 l/m2 in 1 Std. -
Ortszeit Stärke Spitze Richtung
km/h Bft. km/h Grad Sektor
Fr, 20.04. 2:00 7 2 18 10° N
Do, 19.04. 20:00 9 2 20 80° O
Do, 19.04. 14:00 9 2 17 170° S
Do, 19.04. 8:00 4 1 14 330° NW
Do, 19.04. 2:00 4 1 14 330° NW
Mi, 18.04. 20:00 4 1 18 310° NW
Mi, 18.04. 14:00 7 2 15 180° S
Mi, 18.04. 8:00 0 0 11 - -
Ortszeit Stärke Spitze Richtung
km/h Bft. km/h Grad Sektor
Fr, 20.04. 5:00 7 2 11 20° N
Fr, 20.04. 4:40 9 2 - 10° N
Fr, 20.04. 4:30 7 2 11 20° N
Fr, 20.04. 4:20 7 2 - 20° N
Fr, 20.04. 4:10 7 2 - 20° N
Fr, 20.04. 4:00 9 2 11 360° N
Fr, 20.04. 3:50 9 2 - 360° N
Fr, 20.04. 3:30 7 2 11 360° N
Fr, 20.04. 3:00 9 2 11 10° N
Fr, 20.04. 2:30 9 2 11 10° N
Fr, 20.04. 2:00 7 2 11 10° N
Ortszeit Untergrenze Bedeckung Gattung
total tief tief mittel hoch
Fr, 20.04. 2:00 12000 m 7/8 0/8 - - -
Do, 19.04. 20:00 9000 m 8/8 0/8 - - -
Do, 19.04. 14:00 - 0/8 0/8 - - -
Do, 19.04. 8:00 - 0/8 0/8 - - -
Do, 19.04. 2:00 3000 m 0/8 0/8 - - -
Mi, 18.04. 20:00 10500 m 6/8 0/8 - - -
Mi, 18.04. 14:00 10500 m 8/8 0/8 - - -
Mi, 18.04. 8:00 10500 m 1/8 0/8 - - -
Ortszeit Bedeckungsgrad in Achtel und Wolkenuntergrenze
Fr, 20.04. 5:00 8(10500m)
Fr, 20.04. 4:40 8(10500m) 8(12000m)
Fr, 20.04. 4:30 8(10500m) 8(12000m)
Fr, 20.04. 4:20 8(10500m) 8(12000m)
Fr, 20.04. 4:10 8(10500m)
Fr, 20.04. 4:00 8(10500m) 8(10500m)
Fr, 20.04. 3:50 8(10500m)
Fr, 20.04. 3:30 8(10500m) 8(10500m)
Fr, 20.04. 3:00 8(10500m) 8(12000m)
Fr, 20.04. 2:30 8(10500m) 8(12000m)
Fr, 20.04. 2:00 7(12000m)
Ortszeit Luftdruck NN (hPa) Tendenz (hPa in 3 Std.)
Fr, 20.04. 2:00 1027 - 0,7
Do, 19.04. 20:00 1026 - 0,5
Do, 19.04. 14:00 1029 - 1,2
Do, 19.04. 8:00 1031 - 0,2
Do, 19.04. 2:00 1031 + 0,1
Mi, 18.04. 20:00 1030 - 0,8
Mi, 18.04. 14:00 1031 - 0,4
Mi, 18.04. 8:00 1032 + 1,4
Ortszeit Luftdruck NN (hPa) Tendenz (hPa in 3 Std.)
Fr, 20.04. 5:00 1026 - 1,0
Fr, 20.04. 4:40 1026 keine Meldung
Fr, 20.04. 4:30 1026 - 1,1
Fr, 20.04. 4:20 1026 keine Meldung
Fr, 20.04. 4:10 1027 keine Meldung
Fr, 20.04. 4:00 1027 - 1,0
Fr, 20.04. 3:50 1027 keine Meldung
Fr, 20.04. 3:30 1027 - 1,0
Fr, 20.04. 3:00 1027 - 0,9
Fr, 20.04. 2:30 1027 - 0,7
Fr, 20.04. 2:00 1027 - 0,7
Ortszeit Schneehöhe (cm)
Fr, 20.04. 2:00 0
Do, 19.04. 20:00 0
Do, 19.04. 14:00 0
Do, 19.04. 8:00 0
Do, 19.04. 2:00 0
Mi, 18.04. 20:00 0
Mi, 18.04. 14:00 0
Mi, 18.04. 8:00 0
Ortszeit Schneehöhe (cm)
Fr, 20.04. 5:00 0
Fr, 20.04. 4:40 0
Fr, 20.04. 4:30 0
Fr, 20.04. 4:20 0
Fr, 20.04. 4:10 0
Fr, 20.04. 4:00 0
Fr, 20.04. 3:50 0
Fr, 20.04. 3:30 0
Fr, 20.04. 3:00 0
Fr, 20.04. 2:30 0
Fr, 20.04. 2:00 0
Link zu dieser Seite / Seite empfehlen

Das Wetter in ...